Time;durP1;ratioP1;P1;durP2;ratioP2;P2;SDS_P1;SDS_P2;PMS_P1;PMS_P2;Temp;Humidity;BMP_temperature;BMP_pressure;BME280_temperature;BME280_humidity;BME280_pressure;Samples;Min_cycle;Max_cycle;Signal;HPM_P1;HPM_P2
2022/10/25 00:01:40;;;;;;;45.42;29.98;;;14.00;99.90;;;;;;4768353;30;20034;-70
2022/10/25 00:04:06;;;;;;;40.72;27.83;;;14.00;99.90;;;;;;4767412;30;20047;-73
2022/10/25 00:06:32;;;;;;;40.83;29.27;;;13.90;99.90;;;;;;4768737;30;20482;-72
2022/10/25 00:08:58;;;;;;;44.58;29.65;;;13.90;99.90;;;;;;4768001;30;20036;-71
2022/10/25 00:11:37;;;;;;;48.92;30.23;;;13.90;99.90;;;;;;4769607;30;20043;-73
2022/10/25 00:14:14;;;;;;;50.25;30.77;;;13.80;99.90;;;;;;4768120;30;20126;-72
2022/10/25 00:16:40;;;;;;;46.63;29.73;;;13.80;99.90;;;;;;4755638;30;20394;-71
2022/10/25 00:19:06;;;;;;;44.17;29.00;;;13.80;99.90;;;;;;4767991;30;20087;-71
2022/10/25 00:21:32;;;;;;;47.08;30.38;;;13.70;99.90;;;;;;4780484;30;20040;-72
2022/10/25 00:23:58;;;;;;;42.55;28.08;;;13.60;99.90;;;;;;4766792;30;20036;-71
2022/10/25 00:26:24;;;;;;;51.17;27.55;;;13.70;99.90;;;;;;4766735;30;20437;-71
2022/10/25 00:28:53;;;;;;;44.17;27.77;;;13.60;99.90;;;;;;4766691;30;20107;-72
2022/10/25 00:31:21;;;;;;;44.92;28.10;;;13.50;99.90;;;;;;4770133;30;20028;-70
2022/10/25 00:33:47;;;;;;;38.95;25.77;;;13.50;99.90;;;;;;4766515;30;20039;-71
2022/10/25 00:36:18;;;;;;;40.92;26.40;;;13.50;99.90;;;;;;4766375;30;20035;-72
2022/10/25 00:38:45;;;;;;;38.55;24.67;;;13.50;99.90;;;;;;4766611;30;20035;-71
2022/10/25 00:41:13;;;;;;;40.85;24.60;;;13.50;99.90;;;;;;4766362;30;20020;-72
2022/10/25 00:43:39;;;;;;;37.25;25.10;;;13.60;99.90;;;;;;4766498;30;20035;-72
2022/10/25 00:46:17;;;;;;;41.60;24.85;;;13.50;99.90;;;;;;4767364;30;20494;-72
2022/10/25 00:48:54;;;;;;;43.75;26.70;;;13.50;99.90;;;;;;4767882;30;20134;-72
2022/10/25 00:51:25;;;;;;;36.15;23.83;;;13.60;99.90;;;;;;4767787;30;20040;-72
2022/10/25 00:53:51;;;;;;;38.30;23.20;;;13.60;99.90;;;;;;4767831;30;20462;-72
2022/10/25 00:56:24;;;;;;;41.22;23.50;;;13.50;99.90;;;;;;4768027;30;20039;-72
2022/10/25 00:58:56;;;;;;;32.42;20.38;;;13.50;99.90;;;;;;4767987;30;20035;-73
2022/10/25 01:01:23;;;;;;;44.42;20.27;;;13.40;99.90;;;;;;4767950;30;20027;-72
2022/10/25 01:03:51;;;;;;;33.97;18.40;;;13.40;99.90;;;;;;4767832;30;20104;-72
2022/10/25 01:06:32;;;;;;;33.88;20.70;;;13.50;99.90;;;;;;4767448;30;20056;-73
2022/10/25 01:08:59;;;;;;;31.70;18.50;;;13.60;99.90;;;;;;4770261;30;20051;-72
2022/10/25 01:11:25;;;;;;;31.25;18.20;;;13.60;99.90;;;;;;4770933;30;20488;-73
2022/10/25 01:13:51;;;;;;;29.45;17.58;;;13.60;99.90;;;;;;4780100;30;20083;-72
2022/10/25 01:16:24;;;;;;;29.25;16.30;;;13.60;99.90;;;;;;4774570;30;20032;-72
2022/10/25 01:19:37;;;;;;;32.40;16.70;;;13.60;99.90;;;;;;4771076;30;20072;-71
2022/10/25 01:22:10;;;;;;;32.63;18.00;;;13.70;99.90;;;;;;4756364;30;20040;-72
2022/10/25 01:24:51;;;;;;;27.48;16.00;;;13.60;99.90;;;;;;4770783;30;20040;-73
2022/10/25 01:27:46;;;;;;;30.55;16.88;;;13.60;99.90;;;;;;4770891;30;20375;-72
2022/10/25 01:30:22;;;;;;;29.63;17.15;;;13.60;99.90;;;;;;4770635;30;20050;-72
2022/10/25 01:33:10;;;;;;;29.25;16.38;;;13.50;99.90;;;;;;4770896;30;20480;-71
2022/10/25 01:36:02;;;;;;;25.30;15.27;;;13.40;99.90;;;;;;4768319;30;20110;-72
2022/10/25 01:38:31;;;;;;;26.33;14.60;;;13.40;99.90;;;;;;4770050;30;20411;-71
2022/10/25 01:41:09;;;;;;;29.98;16.52;;;13.40;99.90;;;;;;4767386;30;20032;-72
2022/10/25 01:44:01;;;;;;;30.55;15.32;;;13.40;99.90;;;;;;4770030;30;20496;-72
2022/10/25 01:46:40;;;;;;;26.13;14.85;;;13.50;99.90;;;;;;4770071;30;20046;-72
2022/10/25 01:49:15;;;;;;;26.67;13.98;;;13.50;99.90;;;;;;4773161;30;20062;-72
2022/10/25 01:51:41;;;;;;;29.25;15.80;;;13.60;99.90;;;;;;4770509;30;20534;-72
2022/10/25 01:54:23;;;;;;;28.77;15.05;;;13.70;99.90;;;;;;4770181;30;20110;-71
2022/10/25 01:57:10;;;;;;;27.63;15.48;;;13.80;99.90;;;;;;4770202;30;20047;-71
2022/10/25 01:59:37;;;;;;;27.23;16.08;;;13.80;99.90;;;;;;4760086;30;20042;-72
2022/10/25 02:02:37;;;;;;;26.70;16.55;;;13.90;99.90;;;;;;4769830;30;20024;-73
2022/10/25 02:05:20;;;;;;;34.22;16.77;;;14.00;99.90;;;;;;4697725;30;20053;-72
2022/10/25 02:08:07;;;;;;;34.30;16.38;;;14.10;99.90;;;;;;4702917;30;20041;-72
2022/10/25 02:10:48;;;;;;;36.92;19.13;;;14.20;99.90;;;;;;4705167;30;20290;-73
2022/10/25 02:13:38;;;;;;;35.40;16.23;;;14.30;99.90;;;;;;4710724;30;20048;-72
2022/10/25 02:16:14;;;;;;;27.13;16.30;;;14.30;99.90;;;;;;4697151;30;20057;-73
2022/10/25 02:18:47;;;;;;;35.20;17.60;;;14.40;99.90;;;;;;4714654;30;20033;-72
2022/10/25 02:21:16;;;;;;;25.80;15.90;;;14.40;99.90;;;;;;4709324;30;20481;-72
2022/10/25 02:23:43;;;;;;;39.22;18.63;;;14.40;99.90;;;;;;4705606;30;20037;-72
2022/10/25 02:26:10;;;;;;;32.58;18.98;;;14.40;99.90;;;;;;4701213;30;20088;-73
2022/10/25 02:28:39;;;;;;;31.63;18.05;;;14.50;99.90;;;;;;4700710;30;20108;-72
2022/10/25 02:31:10;;;;;;;35.05;18.08;;;14.50;99.90;;;;;;4702650;30;20106;-71
2022/10/25 02:33:36;;;;;;;29.88;18.02;;;14.50;99.90;;;;;;4708311;30;20037;-72
2022/10/25 02:36:15;;;;;;;30.95;18.88;;;14.60;99.90;;;;;;4703790;30;20136;-72
2022/10/25 02:38:42;;;;;;;33.42;18.00;;;14.60;99.90;;;;;;4709974;30;20077;-72
2022/10/25 02:41:08;;;;;;;34.65;18.60;;;14.60;99.90;;;;;;4724877;30;20052;-74
2022/10/25 02:43:34;;;;;;;32.42;19.13;;;14.70;99.90;;;;;;4768819;30;20542;-72
2022/10/25 02:46:08;;;;;;;33.47;18.73;;;14.70;99.90;;;;;;4766230;30;20051;-72
2022/10/25 02:48:35;;;;;;;32.85;18.27;;;14.70;99.90;;;;;;4768547;30;20075;-72
2022/10/25 02:51:01;;;;;;;31.85;18.13;;;14.80;99.90;;;;;;4753552;30;20744;-73
2022/10/25 02:53:27;;;;;;;28.52;17.45;;;14.80;99.90;;;;;;4768729;30;20024;-72
2022/10/25 02:56:04;;;;;;;33.88;18.52;;;14.90;99.90;;;;;;4764835;30;20082;-71
2022/10/25 02:58:31;;;;;;;34.10;19.20;;;14.90;99.90;;;;;;4768169;30;20074;-73
2022/10/25 03:00:58;;;;;;;32.72;19.50;;;14.90;99.90;;;;;;4766036;30;20494;-72
2022/10/25 03:03:25;;;;;;;32.80;18.17;;;15.00;99.90;;;;;;4740944;30;20043;-72
2022/10/25 03:05:51;;;;;;;28.23;17.75;;;15.00;99.90;;;;;;4766700;30;20052;-71
2022/10/25 03:08:17;;;;;;;34.75;17.27;;;15.10;99.90;;;;;;4769063;30;20039;-72
2022/10/25 03:10:43;;;;;;;32.00;18.30;;;15.10;99.90;;;;;;4768944;30;20089;-73
2022/10/25 03:13:09;;;;;;;31.30;18.05;;;15.10;99.90;;;;;;4772707;30;20039;-71
2022/10/25 03:15:35;;;;;;;28.58;16.95;;;15.10;99.90;;;;;;4780998;30;20043;-72
2022/10/25 03:18:01;;;;;;;34.50;17.60;;;15.10;99.90;;;;;;4777836;30;20403;-71
2022/10/25 03:20:27;;;;;;;31.02;17.38;;;15.10;99.90;;;;;;4768950;30;20038;-73
2022/10/25 03:22:52;;;;;;;35.75;18.35;;;15.10;99.90;;;;;;4769009;30;20039;-72
2022/10/25 03:25:18;;;;;;;29.77;16.23;;;15.20;99.90;;;;;;4768594;30;20369;-72
2022/10/25 03:27:44;;;;;;;33.30;17.45;;;15.10;99.90;;;;;;4768598;30;20035;-72
2022/10/25 03:30:12;;;;;;;25.60;15.93;;;15.10;99.90;;;;;;4768488;30;20028;-71
2022/10/25 03:32:38;;;;;;;27.65;15.70;;;15.10;99.90;;;;;;4768110;30;20087;-72
2022/10/25 03:35:05;;;;;;;27.73;15.27;;;15.10;99.90;;;;;;4769149;30;20043;-72
2022/10/25 03:37:30;;;;;;;26.63;15.93;;;15.10;99.90;;;;;;4768744;30;20036;-73
2022/10/25 03:39:56;;;;;;;31.40;15.30;;;15.10;99.90;;;;;;4757370;30;20157;-73
2022/10/25 03:42:22;;;;;;;24.15;15.88;;;15.10;99.90;;;;;;4768441;30;20024;-71
2022/10/25 03:44:48;;;;;;;23.60;13.70;;;15.10;99.90;;;;;;4768588;30;20032;-73
2022/10/25 03:47:14;;;;;;;25.52;14.20;;;15.10;99.90;;;;;;4768346;30;20046;-72
2022/10/25 03:49:39;;;;;;;26.73;13.52;;;15.10;99.90;;;;;;4767725;30;20115;-71
2022/10/25 03:52:06;;;;;;;28.10;14.07;;;15.10;99.90;;;;;;4764364;30;20180;-71
2022/10/25 03:54:32;;;;;;;25.63;14.18;;;15.10;99.90;;;;;;4768107;30;20122;-71
2022/10/25 03:56:58;;;;;;;34.58;14.13;;;15.00;99.90;;;;;;4768705;30;20034;-72
2022/10/25 03:59:24;;;;;;;24.70;13.02;;;15.00;99.90;;;;;;4768439;30;20028;-73
2022/10/25 04:01:50;;;;;;;33.13;15.35;;;15.00;99.90;;;;;;4768080;30;20043;-72
2022/10/25 04:04:16;;;;;;;24.67;14.07;;;15.00;99.90;;;;;;4763981;30;20032;-71
2022/10/25 04:06:42;;;;;;;26.90;13.95;;;15.00;99.90;;;;;;4767901;30;20055;-72
2022/10/25 04:09:08;;;;;;;30.20;14.82;;;14.90;99.90;;;;;;4761380;30;20124;-72
2022/10/25 04:11:33;;;;;;;31.33;13.85;;;14.90;99.90;;;;;;4763139;30;20036;-73
2022/10/25 04:13:59;;;;;;;26.60;13.98;;;14.90;99.90;;;;;;4762894;30;20097;-73
2022/10/25 04:16:25;;;;;;;21.63;13.73;;;14.90;99.90;;;;;;4769538;30;20032;-71
2022/10/25 04:18:56;;;;;;;27.98;13.20;;;14.90;99.90;;;;;;4767808;30;20028;-73
2022/10/25 04:21:22;;;;;;;30.10;13.82;;;14.90;99.90;;;;;;4773830;30;20089;-71
2022/10/25 04:23:48;;;;;;;27.10;14.13;;;14.90;99.90;;;;;;4747968;30;20047;-72
2022/10/25 04:26:17;;;;;;;29.05;13.82;;;14.90;99.90;;;;;;4753641;30;20445;-71
2022/10/25 04:28:44;;;;;;;28.70;14.80;;;14.80;99.90;;;;;;4755974;30;20032;-72
2022/10/25 04:31:10;;;;;;;26.48;13.70;;;14.80;99.90;;;;;;4757338;30;20040;-73
2022/10/25 04:33:35;;;;;;;26.77;16.13;;;14.80;99.90;;;;;;4766539;30;20040;-72
2022/10/25 04:36:02;;;;;;;25.65;14.32;;;14.70;99.90;;;;;;4770003;30;20093;-69
2022/10/25 04:38:27;;;;;;;30.48;14.73;;;14.70;99.90;;;;;;4755483;30;20036;-69
2022/10/25 04:40:56;;;;;;;28.77;15.25;;;14.80;99.90;;;;;;4739616;30;20040;-69
2022/10/25 04:43:22;;;;;;;27.30;14.43;;;14.70;99.90;;;;;;4759886;30;20061;-70
2022/10/25 04:45:48;;;;;;;26.90;15.52;;;14.70;99.90;;;;;;4766594;30;20040;-70
2022/10/25 04:48:15;;;;;;;33.08;18.88;;;14.70;99.90;;;;;;4770441;30;20078;-70
2022/10/25 04:50:41;;;;;;;32.38;17.77;;;14.70;99.90;;;;;;4763976;30;20040;-70
2022/10/25 04:53:06;;;;;;;32.47;20.52;;;14.70;99.90;;;;;;4762689;30;20400;-70
2022/10/25 04:55:32;;;;;;;29.63;16.38;;;14.70;99.90;;;;;;4755166;30;20406;-70
2022/10/25 04:57:58;;;;;;;27.08;16.48;;;14.60;99.90;;;;;;4768225;30;20031;-70
2022/10/25 05:00:24;;;;;;;28.38;17.75;;;14.60;99.90;;;;;;4774723;30;20139;-70
2022/10/25 05:02:54;;;;;;;33.90;16.80;;;14.60;99.90;;;;;;4777513;30;20028;-70
2022/10/25 05:05:22;;;;;;;26.20;16.20;;;14.60;99.90;;;;;;4767621;30;20686;-70
2022/10/25 05:07:49;;;;;;;35.05;19.48;;;14.50;99.90;;;;;;4757704;30;20170;-71
2022/10/25 05:10:15;;;;;;;35.30;21.15;;;14.50;99.90;;;;;;4768527;30;20040;-71
2022/10/25 05:12:40;;;;;;;37.42;22.70;;;14.60;99.90;;;;;;4770883;30;20476;-70
2022/10/25 05:15:07;;;;;;;44.63;26.00;;;14.60;99.90;;;;;;4769210;30;20050;-70
2022/10/25 05:17:33;;;;;;;35.13;19.70;;;14.60;99.90;;;;;;4764284;30;20042;-70
2022/10/25 05:19:59;;;;;;;30.17;15.27;;;14.50;99.90;;;;;;4774871;30;20031;-71
2022/10/25 05:22:25;;;;;;;26.05;15.07;;;14.60;99.90;;;;;;4779464;30;20027;-70
2022/10/25 05:24:51;;;;;;;27.20;15.95;;;14.60;99.90;;;;;;4757939;30;20036;-70
2022/10/25 05:27:17;;;;;;;30.33;17.05;;;14.70;99.90;;;;;;4761368;30;20032;-70
2022/10/25 05:29:43;;;;;;;29.83;15.90;;;14.60;99.90;;;;;;4769362;30;20470;-71
2022/10/25 05:32:09;;;;;;;26.70;15.95;;;14.70;99.90;;;;;;4776466;30;20020;-71
2022/10/25 05:34:35;;;;;;;35.35;15.88;;;14.70;99.90;;;;;;4773671;30;20127;-70
2022/10/25 05:37:00;;;;;;;27.20;16.13;;;14.70;99.90;;;;;;4766574;30;20027;-70
2022/10/25 05:39:26;;;;;;;34.35;16.77;;;14.70;99.90;;;;;;4770540;30;20464;-71
2022/10/25 05:41:52;;;;;;;24.75;15.43;;;14.80;99.90;;;;;;4762789;30;20028;-70
2022/10/25 05:44:18;;;;;;;26.02;17.17;;;14.90;99.90;;;;;;4766041;30;20115;-70
2022/10/25 05:46:44;;;;;;;27.23;17.13;;;15.00;99.90;;;;;;4770042;30;20502;-70
2022/10/25 05:49:11;;;;;;;32.33;16.95;;;15.00;99.90;;;;;;4770458;30;20561;-70
2022/10/25 05:51:37;;;;;;;28.70;17.70;;;15.10;99.90;;;;;;4770208;30;20032;-71
2022/10/25 05:54:12;;;;;;;28.52;17.42;;;15.10;99.90;;;;;;4774318;30;20171;-70
2022/10/25 05:56:39;;;;;;;36.22;18.13;;;15.20;99.90;;;;;;4777408;30;20483;-71
2022/10/25 05:59:07;;;;;;;47.53;19.60;;;15.30;99.90;;;;;;4769615;30;20107;-69
2022/10/25 06:01:34;;;;;;;23.85;15.90;;;15.30;99.90;;;;;;4761848;30;20602;-71
2022/10/25 06:04:00;;;;;;;29.17;15.23;;;15.30;99.90;;;;;;4769950;30;20123;-71
2022/10/25 06:06:26;;;;;;;28.65;14.70;;;15.40;99.90;;;;;;4767764;30;20059;-71
2022/10/25 06:08:57;;;;;;;23.40;13.85;;;15.40;99.90;;;;;;4769991;30;20040;-70
2022/10/25 06:11:23;;;;;;;24.60;14.38;;;15.50;99.90;;;;;;4769737;30;20100;-70
2022/10/25 06:13:49;;;;;;;28.77;13.63;;;15.60;99.90;;;;;;4755663;30;20105;-69
2022/10/25 06:16:17;;;;;;;27.50;14.10;;;15.70;99.90;;;;;;4757610;30;20059;-70
2022/10/25 06:18:43;;;;;;;27.25;15.35;;;15.70;99.90;;;;;;4769240;30;20028;-70
2022/10/25 06:21:14;;;;;;;24.50;14.30;;;15.80;99.90;;;;;;4769975;30;20036;-70
2022/10/25 06:23:41;;;;;;;25.67;16.10;;;15.90;99.90;;;;;;4770117;30;20092;-70
2022/10/25 06:26:10;;;;;;;25.33;15.13;;;16.10;99.90;;;;;;4770278;30;20168;-71
2022/10/25 06:28:37;;;;;;;26.10;15.35;;;16.10;99.90;;;;;;4782899;30;20493;-70
2022/10/25 06:31:03;;;;;;;30.23;16.42;;;16.20;99.90;;;;;;4768050;30;20028;-71
2022/10/25 06:33:30;;;;;;;29.80;15.55;;;16.30;99.90;;;;;;4761433;30;20032;-70
2022/10/25 06:36:00;;;;;;;29.40;14.63;;;16.40;99.90;;;;;;4769946;30;20039;-70
2022/10/25 06:38:28;;;;;;;22.83;15.10;;;16.50;99.90;;;;;;4751007;30;20407;-70
2022/10/25 06:41:02;;;;;;;26.92;15.35;;;16.50;99.90;;;;;;4763445;30;20073;-70
2022/10/25 06:43:28;;;;;;;27.15;15.13;;;16.60;99.90;;;;;;4763702;30;20024;-70
2022/10/25 06:45:55;;;;;;;24.88;15.00;;;16.60;99.90;;;;;;4769346;30;20028;-70
2022/10/25 06:48:21;;;;;;;26.55;14.85;;;16.80;99.90;;;;;;4769767;30;20127;-69
2022/10/25 06:50:47;;;;;;;24.08;16.17;;;16.90;99.90;;;;;;4769234;30;20060;-70
2022/10/25 06:53:13;;;;;;;31.45;18.98;;;16.90;99.90;;;;;;4763962;30;20101;-70
2022/10/25 06:55:41;;;;;;;30.27;18.65;;;17.00;99.90;;;;;;4766782;30;20075;-70
2022/10/25 06:58:07;;;;;;;30.45;19.73;;;17.20;99.90;;;;;;4765102;30;20035;-70
2022/10/25 07:00:33;;;;;;;32.97;21.00;;;17.20;99.90;;;;;;4759409;30;20032;-70
2022/10/25 07:02:59;;;;;;;31.20;20.15;;;17.30;99.90;;;;;;4768977;30;20433;-70
2022/10/25 07:05:25;;;;;;;28.58;17.55;;;17.50;99.90;;;;;;4759506;30;20040;-70
2022/10/25 07:07:52;;;;;;;30.63;17.23;;;17.60;99.90;;;;;;4766202;30;20119;-70
2022/10/25 07:10:18;;;;;;;25.60;14.98;;;17.70;99.90;;;;;;4767492;30;20089;-71
2022/10/25 07:12:44;;;;;;;25.60;13.23;;;17.80;99.90;;;;;;4767406;30;20093;-70
2022/10/25 07:15:10;;;;;;;29.30;12.55;;;17.90;99.90;;;;;;4763826;30;20036;-70
2022/10/25 07:17:36;;;;;;;24.95;14.10;;;17.90;99.90;;;;;;4767763;30;20024;-71
2022/10/25 07:20:03;;;;;;;27.58;13.40;;;18.00;99.90;;;;;;4758642;30;20437;-70
2022/10/25 07:22:28;;;;;;;20.23;12.32;;;18.20;99.90;;;;;;4752250;30;20081;-69
2022/10/25 07:24:54;;;;;;;22.60;12.18;;;18.30;99.90;;;;;;4764386;30;20027;-69
2022/10/25 07:27:20;;;;;;;21.13;11.55;;;18.40;99.90;;;;;;4768728;30;20475;-71
2022/10/25 07:29:47;;;;;;;20.25;12.02;;;18.50;99.90;;;;;;4767499;30;20038;-70
2022/10/25 07:32:13;;;;;;;28.33;13.95;;;18.60;99.90;;;;;;4756542;30;20467;-70
2022/10/25 07:34:39;;;;;;;21.33;11.13;;;18.80;99.90;;;;;;4767458;30;20039;-70
2022/10/25 07:37:06;;;;;;;16.63;10.20;;;18.80;99.90;;;;;;4763447;30;20520;-71
2022/10/25 07:39:31;;;;;;;23.30;12.43;;;18.80;99.90;;;;;;4760495;30;20063;-71
2022/10/25 07:41:57;;;;;;;28.30;13.07;;;18.90;99.90;;;;;;4767553;30;20436;-71
2022/10/25 07:44:23;;;;;;;25.40;17.48;;;18.90;99.90;;;;;;4764451;30;20036;-69
2022/10/25 07:46:50;;;;;;;24.92;12.75;;;19.10;99.90;;;;;;4768168;30;20526;-71
2022/10/25 07:49:16;;;;;;;19.40;13.18;;;19.10;99.90;;;;;;4768747;30;20468;-70
2022/10/25 07:51:42;;;;;;;19.77;10.52;;;19.10;99.90;;;;;;4768686;30;20165;-72
2022/10/25 07:54:08;;;;;;;17.30;8.75;;;19.00;99.90;;;;;;4768655;30;20070;-70
2022/10/25 07:56:34;;;;;;;20.30;8.48;;;19.10;99.90;;;;;;4768903;30;20060;-71
2022/10/25 07:59:00;;;;;;;15.38;8.85;;;18.90;99.90;;;;;;4781369;30;20477;-71
2022/10/25 08:01:27;;;;;;;18.20;9.07;;;18.90;99.90;;;;;;4766869;30;20032;-70
2022/10/25 08:03:54;;;;;;;20.50;8.60;;;18.90;99.90;;;;;;4766669;30;20031;-70
2022/10/25 08:06:21;;;;;;;14.82;7.68;;;19.00;99.90;;;;;;4767483;30;20048;-71
2022/10/25 08:08:47;;;;;;;15.00;8.35;;;19.10;99.90;;;;;;4766408;30;20040;-70
2022/10/25 08:11:13;;;;;;;20.95;8.30;;;19.20;99.90;;;;;;4768487;30;20429;-70
2022/10/25 08:13:39;;;;;;;19.27;8.80;;;19.30;99.90;;;;;;4769843;30;20037;-73
2022/10/25 08:16:06;;;;;;;16.15;8.85;;;19.10;99.90;;;;;;4762532;30;20377;-70
2022/10/25 08:18:33;;;;;;;20.48;9.25;;;19.30;99.90;;;;;;4768084;30;20525;-70
2022/10/25 08:21:00;;;;;;;18.13;9.63;;;19.40;99.90;;;;;;4770578;30;20147;-71
2022/10/25 08:23:27;;;;;;;25.00;10.05;;;19.50;99.90;;;;;;4764714;30;20028;-71
2022/10/25 08:25:52;;;;;;;21.52;9.52;;;19.50;99.90;;;;;;4760337;30;20051;-70
2022/10/25 08:28:19;;;;;;;20.75;9.20;;;19.50;99.90;;;;;;4769465;30;20106;-71
2022/10/25 08:30:45;;;;;;;16.30;8.15;;;19.50;99.90;;;;;;4771433;30;20043;-70
2022/10/25 08:33:11;;;;;;;16.98;8.55;;;19.50;99.90;;;;;;4770563;30;20031;-70
2022/10/25 08:35:37;;;;;;;17.27;9.07;;;19.50;99.90;;;;;;4759666;30;20067;-71
2022/10/25 08:38:04;;;;;;;19.75;9.15;;;19.50;99.90;;;;;;4767719;30;20046;-70
2022/10/25 08:40:44;;;;;;;18.67;8.95;;;19.40;99.90;;;;;;4770251;30;20043;-71
2022/10/25 08:43:22;;;;;;;16.65;9.45;;;19.50;99.90;;;;;;4771429;30;20093;-70
2022/10/25 08:46:09;;;;;;;16.25;9.13;;;19.50;99.90;;;;;;4771840;30;20081;-71
2022/10/25 08:48:40;;;;;;;18.77;9.05;;;19.50;99.90;;;;;;4766916;30;20120;-71
2022/10/25 08:51:37;;;;;;;17.63;8.65;;;19.50;99.90;;;;;;4764265;30;20032;-70
2022/10/25 08:54:13;;;;;;;15.88;8.90;;;19.30;99.90;;;;;;4771154;30;20051;-71
2022/10/25 08:56:40;;;;;;;16.17;9.20;;;19.40;99.90;;;;;;4766216;30;20050;-70
2022/10/25 08:59:06;;;;;;;17.45;8.68;;;19.40;99.90;;;;;;4767332;30;20043;-71
2022/10/25 09:01:46;;;;;;;24.15;9.15;;;19.50;99.90;;;;;;4761164;30;20050;-71
2022/10/25 09:04:12;;;;;;;16.38;7.57;;;19.40;99.90;;;;;;4769210;30;20509;-70
2022/10/25 09:06:49;;;;;;;15.68;8.63;;;19.40;99.90;;;;;;4761300;30;20144;-69
2022/10/25 09:09:27;;;;;;;16.85;8.88;;;19.40;99.90;;;;;;4768404;30;20050;-70
2022/10/25 09:12:04;;;;;;;16.23;8.50;;;19.30;99.90;;;;;;4763834;30;20549;-70
2022/10/25 09:15:18;;;;;;;15.75;8.63;;;19.30;99.90;;;;;;4767368;30;20042;-70
2022/10/25 09:17:48;;;;;;;;;;;19.50;99.90;;;;;;4701006;30;20409;-70
2022/10/25 09:20:35;;;;;;;20.52;9.60;;;19.50;99.90;;;;;;4697188;30;19950;-71
2022/10/25 09:23:10;;;;;;;16.23;9.07;;;19.50;99.90;;;;;;4712675;30;20053;-71
2022/10/25 09:25:44;;;;;;;15.73;8.57;;;19.50;99.90;;;;;;4713702;30;20036;-70
2022/10/25 09:28:19;;;;;;;15.75;8.88;;;19.70;99.90;;;;;;4711303;30;20059;-70
2022/10/25 09:30:45;;;;;;;18.63;10.15;;;19.80;99.90;;;;;;4715035;30;20041;-70
2022/10/25 09:33:15;;;;;;;13.27;7.60;;;19.80;99.90;;;;;;4715177;30;20036;-71
2022/10/25 09:35:47;;;;;;;11.85;6.13;;;19.80;99.90;;;;;;4709147;30;20054;-71
2022/10/25 09:38:26;;;;;;;12.52;6.47;;;19.90;99.90;;;;;;4711128;30;20533;-71
2022/10/25 09:41:04;;;;;;;11.38;6.32;;;19.90;99.90;;;;;;4701229;30;20045;-71
2022/10/25 09:44:05;;;;;;;14.27;6.45;;;20.10;99.90;;;;;;4709926;30;20108;-71
2022/10/25 09:46:41;;;;;;;15.98;7.45;;;20.20;99.90;;;;;;4704321;30;20045;-70
2022/10/25 09:49:22;;;;;;;11.35;6.63;;;20.40;99.90;;;;;;4701062;30;20112;-71
2022/10/25 09:52:04;;;;;;;12.38;6.78;;;20.50;99.90;;;;;;4710158;30;20044;-71
2022/10/25 09:54:43;;;;;;;12.52;5.57;;;20.50;99.90;;;;;;4764022;30;20495;-71
2022/10/25 09:57:09;;;;;;;9.75;5.18;;;20.60;99.90;;;;;;4765490;30;20045;-71
2022/10/25 09:59:34;;;;;;;11.70;6.20;;;20.50;99.90;;;;;;4767149;30;20572;-71
2022/10/25 10:02:00;;;;;;;11.77;6.25;;;20.40;99.90;;;;;;4770290;30;20032;-71
2022/10/25 10:04:35;;;;;;;13.57;5.72;;;20.40;99.90;;;;;;4768310;30;20032;-69
2022/10/25 10:07:19;;;;;;;9.95;5.00;;;20.30;99.90;;;;;;4770372;30;20447;-72
2022/10/25 10:09:47;;;;;;;8.35;4.57;;;20.20;99.90;;;;;;4763750;30;20056;-71
2022/10/25 10:12:42;;;;;;;11.18;5.32;;;20.20;99.90;;;;;;4768412;30;20035;-72
2022/10/25 10:15:16;;;;;;;11.57;4.72;;;20.10;99.90;;;;;;4747098;30;20052;-70
2022/10/25 10:17:42;;;;;;;10.35;5.55;;;20.00;99.90;;;;;;4764793;30;20024;-71
2022/10/25 10:20:16;;;;;;;11.10;5.63;;;19.90;99.90;;;;;;4768309;30;20120;-70
2022/10/25 10:22:49;;;;;;;11.27;5.03;;;19.90;99.90;;;;;;4769698;30;20034;-71
2022/10/25 10:25:21;;;;;;;10.90;5.50;;;19.90;99.90;;;;;;4760354;30;20418;-71
2022/10/25 10:27:49;;;;;;;11.63;4.70;;;20.10;99.90;;;;;;4770370;30;20039;-70
2022/10/25 10:30:22;;;;;;;9.98;5.03;;;20.10;99.90;;;;;;4765106;30;20403;-70
2022/10/25 10:32:53;;;;;;;10.15;4.95;;;20.10;99.90;;;;;;4763274;30;20066;-71
2022/10/25 10:35:27;;;;;;;8.47;4.07;;;20.10;99.90;;;;;;4766922;30;20044;-71
2022/10/25 10:38:13;;;;;;;6.60;3.10;;;20.00;99.90;;;;;;4770213;30;20806;-71
2022/10/25 10:40:39;;;;;;;6.28;3.30;;;20.20;99.90;;;;;;4757612;30;20488;-71
2022/10/25 10:43:28;;;;;;;4.60;2.97;;;20.10;99.90;;;;;;4769085;30;20092;-70
2022/10/25 10:46:02;;;;;;;5.25;3.33;;;20.20;99.90;;;;;;4765937;30;20552;-71
2022/10/25 10:48:32;;;;;;;5.78;3.00;;;20.30;99.90;;;;;;4765349;30;20444;-72
2022/10/25 10:50:58;;;;;;;4.68;2.25;;;20.30;99.90;;;;;;4762283;30;20107;-71
2022/10/25 10:53:31;;;;;;;4.93;2.05;;;20.40;99.90;;;;;;4760383;30;20036;-71
2022/10/25 10:56:00;;;;;;;10.20;3.15;;;20.40;99.90;;;;;;4760757;30;20047;-70
2022/10/25 10:58:35;;;;;;;4.30;2.42;;;20.50;99.90;;;;;;4766222;30;20071;-71
2022/10/25 11:01:06;;;;;;;5.03;2.05;;;20.50;99.90;;;;;;4765214;30;20040;-71
2022/10/25 11:03:38;;;;;;;9.20;2.83;;;20.30;99.90;;;;;;4765047;30;20126;-71
2022/10/25 11:06:31;;;;;;;2.85;1.52;;;20.20;99.90;;;;;;4778685;30;20451;-71
2022/10/25 11:09:21;;;;;;;4.28;1.70;;;20.20;99.90;;;;;;4770260;30;20029;-72
2022/10/25 11:12:15;;;;;;;3.75;1.70;;;20.50;99.90;;;;;;4763536;30;20136;-71
2022/10/25 11:14:44;;;;;;;6.47;1.88;;;20.50;99.90;;;;;;4755004;30;20314;-70
2022/10/25 11:17:25;;;;;;;2.22;1.75;;;20.50;99.90;;;;;;4764710;30;20067;-71
2022/10/25 11:20:15;;;;;;;11.73;3.80;;;20.40;99.90;;;;;;4764788;30;20023;-71
2022/10/25 11:23:09;;;;;;;2.65;1.77;;;20.50;99.90;;;;;;4751722;30;20166;-72
2022/10/25 11:25:53;;;;;;;4.20;2.10;;;20.60;99.90;;;;;;4768841;30;20368;-73
2022/10/25 11:28:23;;;;;;;4.18;2.15;;;20.70;99.90;;;;;;4763825;30;20036;-70
2022/10/25 11:31:07;;;;;;;4.25;2.00;;;20.60;99.90;;;;;;4766976;30;20036;-73
2022/10/25 11:34:04;;;;;;;7.50;2.28;;;20.70;99.90;;;;;;4766997;30;20547;-72
2022/10/25 11:36:35;;;;;;;7.70;2.47;;;20.80;99.90;;;;;;4767629;30;20089;-69
2022/10/25 11:39:04;;;;;;;5.85;2.88;;;20.80;99.90;;;;;;4768791;30;20047;-72
2022/10/25 11:41:46;;;;;;;5.35;2.75;;;20.80;99.90;;;;;;4768658;30;20038;-72
2022/10/25 11:44:36;;;;;;;5.75;2.83;;;21.00;99.90;;;;;;4767536;30;20044;-70
2022/10/25 11:47:17;;;;;;;8.43;3.22;;;21.10;99.90;;;;;;4763711;30;20057;-70
2022/10/25 11:50:15;;;;;;;8.65;4.28;;;21.10;99.90;;;;;;4765984;30;20096;-71
2022/10/25 11:52:59;;;;;;;10.95;4.72;;;21.20;99.90;;;;;;4767534;30;20115;-71
2022/10/25 11:55:56;;;;;;;5.15;2.80;;;21.20;99.90;;;;;;4768332;30;20032;-72
2022/10/25 11:58:59;;;;;;;6.88;2.83;;;21.20;99.90;;;;;;4766938;30;20040;-70
2022/10/25 12:02:01;;;;;;;8.80;2.58;;;21.20;99.90;;;;;;4765315;30;20685;-72
2022/10/25 12:04:30;;;;;;;11.18;4.43;;;21.10;99.90;;;;;;4767725;30;20402;-71
2022/10/25 12:07:06;;;;;;;8.27;3.90;;;21.10;99.90;;;;;;4768104;30;20078;-72
2022/10/25 12:09:55;;;;;;;12.90;4.15;;;21.10;99.90;;;;;;4767802;30;20379;-69
2022/10/25 12:12:47;;;;;;;9.15;3.50;;;21.10;99.90;;;;;;4758493;30;20035;-73
2022/10/25 12:15:20;;;;;;;8.95;3.17;;;21.10;99.90;;;;;;4768445;30;20032;-71
2022/10/25 12:17:46;;;;;;;6.57;3.20;;;21.10;99.90;;;;;;4751500;30;20051;-72
2022/10/25 12:20:24;;;;;;;3.63;2.40;;;21.10;99.90;;;;;;4767494;30;20529;-70
2022/10/25 12:22:53;;;;;;;7.15;3.13;;;21.10;99.90;;;;;;4767982;30;20074;-71
2022/10/25 12:25:45;;;;;;;9.13;3.53;;;21.10;99.90;;;;;;4768198;30;20130;-70
2022/10/25 12:28:22;;;;;;;7.85;3.10;;;21.10;99.90;;;;;;4768373;30;20024;-70
2022/10/25 12:30:52;;;;;;;5.03;3.05;;;21.00;99.90;;;;;;4768254;30;20387;-71
2022/10/25 12:33:40;;;;;;;4.90;3.08;;;21.20;99.90;;;;;;4768523;30;20470;-71
2022/10/25 12:36:18;;;;;;;9.27;4.97;;;21.20;99.90;;;;;;4767393;30;20036;-70
2022/10/25 12:38:44;;;;;;;6.93;2.83;;;21.20;99.90;;;;;;4767894;30;20098;-70
2022/10/25 12:41:17;;;;;;;8.15;3.00;;;21.10;99.90;;;;;;4768409;30;20036;-70
2022/10/25 12:44:18;;;;;;;7.60;3.55;;;21.20;99.90;;;;;;4766981;30;20040;-71
2022/10/25 12:47:15;;;;;;;5.03;2.70;;;21.30;99.90;;;;;;4712977;30;20437;-71
2022/10/25 12:50:31;;;;;;;9.77;2.90;;;21.30;99.90;;;;;;4712692;30;20060;-71
2022/10/25 12:53:20;;;;;;;5.57;2.88;;;21.40;99.90;;;;;;4669024;30;20411;-71
2022/10/25 12:56:23;;;;;;;7.78;2.75;;;21.60;99.90;;;;;;4676974;30;20046;-72
2022/10/25 12:59:06;;;;;;;7.32;2.63;;;21.50;99.90;;;;;;4680780;30;20035;-72